sensor_id;sensor_type;location;lat;lon;timestamp;pressure;altitude;pressure_sealevel;temperature;humidity
72423;BME280;60413;55.658;37.498;2023-03-04T00:01:22;97219.59;;;-2.80;100.00
72423;BME280;60413;55.658;37.498;2023-03-04T00:03:50;97193.03;;;-2.87;100.00
72423;BME280;60413;55.658;37.498;2023-03-04T00:06:16;97194.22;;;-2.83;100.00
72423;BME280;60413;55.658;37.498;2023-03-04T00:08:42;97215.41;;;-2.68;100.00
72423;BME280;60413;55.658;37.498;2023-03-04T00:11:08;97201.16;;;-2.77;100.00
72423;BME280;60413;55.658;37.498;2023-03-04T00:13:34;97184.28;;;-2.80;100.00
72423;BME280;60413;55.658;37.498;2023-03-04T00:16:00;97182.31;;;-2.84;100.00
72423;BME280;60413;55.658;37.498;2023-03-04T00:18:26;97173.59;;;-2.83;100.00
72423;BME280;60413;55.658;37.498;2023-03-04T00:20:52;97187.63;;;-2.66;100.00
72423;BME280;60413;55.658;37.498;2023-03-04T00:23:19;97182.91;;;-2.75;100.00
72423;BME280;60413;55.658;37.498;2023-03-04T00:25:45;97188.63;;;-2.60;100.00
72423;BME280;60413;55.658;37.498;2023-03-04T00:28:13;97163.88;;;-2.81;100.00
72423;BME280;60413;55.658;37.498;2023-03-04T00:30:39;97174.34;;;-2.69;100.00
72423;BME280;60413;55.658;37.498;2023-03-04T00:33:05;97158.31;;;-2.85;100.00
72423;BME280;60413;55.658;37.498;2023-03-04T00:35:32;97158.72;;;-2.81;100.00
72423;BME280;60413;55.658;37.498;2023-03-04T00:37:58;97165.09;;;-2.84;100.00
72423;BME280;60413;55.658;37.498;2023-03-04T00:40:24;97179.72;;;-2.64;100.00
72423;BME280;60413;55.658;37.498;2023-03-04T00:42:50;97146.41;;;-2.86;100.00
72423;BME280;60413;55.658;37.498;2023-03-04T00:45:16;97163.66;;;-2.73;100.00
72423;BME280;60413;55.658;37.498;2023-03-04T00:48:08;97168.63;;;-2.71;100.00
72423;BME280;60413;55.658;37.498;2023-03-04T00:50:38;97159.50;;;-2.74;100.00
72423;BME280;60413;55.658;37.498;2023-03-04T00:53:04;97160.31;;;-2.73;100.00
72423;BME280;60413;55.658;37.498;2023-03-04T00:55:41;97163.84;;;-2.74;100.00
72423;BME280;60413;55.658;37.498;2023-03-04T00:58:09;97168.22;;;-2.75;100.00
72423;BME280;60413;55.658;37.498;2023-03-04T01:00:39;97168.25;;;-2.88;100.00
72423;BME280;60413;55.658;37.498;2023-03-04T01:03:05;97179.13;;;-2.80;100.00
72423;BME280;60413;55.658;37.498;2023-03-04T01:05:34;97140.09;;;-2.96;100.00
72423;BME280;60413;55.658;37.498;2023-03-04T01:08:01;97151.81;;;-2.94;100.00
72423;BME280;60413;55.658;37.498;2023-03-04T01:10:30;97149.44;;;-3.02;100.00
72423;BME280;60413;55.658;37.498;2023-03-04T01:12:57;97159.13;;;-2.91;100.00
72423;BME280;60413;55.658;37.498;2023-03-04T01:15:36;97155.94;;;-2.93;100.00
72423;BME280;60413;55.658;37.498;2023-03-04T01:18:03;97133.34;;;-2.98;100.00
72423;BME280;60413;55.658;37.498;2023-03-04T01:20:30;97139.13;;;-3.02;100.00
72423;BME280;60413;55.658;37.498;2023-03-04T01:22:58;97144.06;;;-2.94;100.00
72423;BME280;60413;55.658;37.498;2023-03-04T01:25:25;97165.47;;;-2.87;100.00
72423;BME280;60413;55.658;37.498;2023-03-04T01:27:51;97155.94;;;-2.93;100.00
72423;BME280;60413;55.658;37.498;2023-03-04T01:30:18;97146.44;;;-2.92;100.00
72423;BME280;60413;55.658;37.498;2023-03-04T01:32:44;97149.25;;;-3.01;100.00
72423;BME280;60413;55.658;37.498;2023-03-04T01:35:13;97152.78;;;-3.02;100.00
72423;BME280;60413;55.658;37.498;2023-03-04T01:37:40;97121.69;;;-3.13;100.00
72423;BME280;60413;55.658;37.498;2023-03-04T01:40:06;97116.72;;;-3.22;100.00
72423;BME280;60413;55.658;37.498;2023-03-04T01:42:34;97164.91;;;-2.95;100.00
72423;BME280;60413;55.658;37.498;2023-03-04T01:45:02;97138.13;;;-3.14;100.00
72423;BME280;60413;55.658;37.498;2023-03-04T01:47:30;97161.31;;;-3.01;100.00
72423;BME280;60413;55.658;37.498;2023-03-04T01:49:57;97145.47;;;-3.11;100.00
72423;BME280;60413;55.658;37.498;2023-03-04T01:52:28;97117.72;;;-3.16;100.00
72423;BME280;60413;55.658;37.498;2023-03-04T01:55:09;97106.81;;;-3.05;100.00
72423;BME280;60413;55.658;37.498;2023-03-04T01:57:39;97116.91;;;-2.96;100.00
72423;BME280;60413;55.658;37.498;2023-03-04T02:02:52;97101.84;;;-3.06;100.00
72423;BME280;60413;55.658;37.498;2023-03-04T02:05:20;97089.75;;;-3.12;100.00
72423;BME280;60413;55.658;37.498;2023-03-04T02:07:48;97130.56;;;-2.83;100.00
72423;BME280;60413;55.658;37.498;2023-03-04T02:10:18;97115.50;;;-2.92;100.00
72423;BME280;60413;55.658;37.498;2023-03-04T02:12:47;97092.31;;;-3.06;100.00
72423;BME280;60413;55.658;37.498;2023-03-04T02:15:14;97105.63;;;-2.95;100.00
72423;BME280;60413;55.658;37.498;2023-03-04T02:17:41;97097.69;;;-2.94;100.00
72423;BME280;60413;55.658;37.498;2023-03-04T02:26:11;97078.22;;;-2.90;100.00
72423;BME280;60413;55.658;37.498;2023-03-04T02:28:37;97092.91;;;-2.84;100.00
72423;BME280;60413;55.658;37.498;2023-03-04T02:31:03;97095.69;;;-2.92;100.00
72423;BME280;60413;55.658;37.498;2023-03-04T02:33:30;97061.66;;;-3.21;100.00
72423;BME280;60413;55.658;37.498;2023-03-04T02:36:01;97063.22;;;-3.20;100.00
72423;BME280;60413;55.658;37.498;2023-03-04T02:38:27;97049.53;;;-3.13;100.00
72423;BME280;60413;55.658;37.498;2023-03-04T02:40:54;97058.47;;;-3.23;100.00
72423;BME280;60413;55.658;37.498;2023-03-04T02:43:22;97048.34;;;-3.18;100.00
72423;BME280;60413;55.658;37.498;2023-03-04T02:45:50;97050.16;;;-3.31;100.00
72423;BME280;60413;55.658;37.498;2023-03-04T02:48:20;97038.69;;;-3.29;100.00
72423;BME280;60413;55.658;37.498;2023-03-04T02:50:49;97057.47;;;-3.22;100.00
72423;BME280;60413;55.658;37.498;2023-03-04T02:53:17;97034.31;;;-3.48;100.00
72423;BME280;60413;55.658;37.498;2023-03-04T02:55:43;97016.31;;;-3.55;100.00
72423;BME280;60413;55.658;37.498;2023-03-04T02:58:11;97055.50;;;-3.20;100.00
72423;BME280;60413;55.658;37.498;2023-03-04T03:00:38;97044.03;;;-3.30;100.00
72423;BME280;60413;55.658;37.498;2023-03-04T03:03:05;97024.22;;;-3.43;100.00
72423;BME280;60413;55.658;37.498;2023-03-04T03:05:35;97041.22;;;-3.15;100.00
72423;BME280;60413;55.658;37.498;2023-03-04T03:08:05;97031.16;;;-3.30;100.00
72423;BME280;60413;55.658;37.498;2023-03-04T03:10:31;97029.53;;;-3.31;100.00
72423;BME280;60413;55.658;37.498;2023-03-04T03:12:57;97006.75;;;-3.35;100.00
72423;BME280;60413;55.658;37.498;2023-03-04T03:15:24;97013.13;;;-3.37;100.00
72423;BME280;60413;55.658;37.498;2023-03-04T03:17:50;97014.88;;;-3.38;100.00
72423;BME280;60413;55.658;37.498;2023-03-04T03:20:19;97030.72;;;-3.21;100.00
72423;BME280;60413;55.658;37.498;2023-03-04T03:22:48;97033.72;;;-3.24;100.00
72423;BME280;60413;55.658;37.498;2023-03-04T03:25:16;97008.38;;;-3.40;100.00
72423;BME280;60413;55.658;37.498;2023-03-04T03:27:42;96999.44;;;-3.44;100.00
72423;BME280;60413;55.658;37.498;2023-03-04T03:30:12;97013.13;;;-3.44;100.00
72423;BME280;60413;55.658;37.498;2023-03-04T03:32:38;96981.03;;;-3.55;100.00
72423;BME280;60413;55.658;37.498;2023-03-04T03:35:06;96982.25;;;-3.50;100.00
72423;BME280;60413;55.658;37.498;2023-03-04T03:37:33;97004.59;;;-3.44;100.00
72423;BME280;60413;55.658;37.498;2023-03-04T03:40:02;96994.31;;;-3.51;100.00
72423;BME280;60413;55.658;37.498;2023-03-04T03:42:28;96997.69;;;-3.44;100.00
72423;BME280;60413;55.658;37.498;2023-03-04T03:44:54;97007.34;;;-3.39;100.00
72423;BME280;60413;55.658;37.498;2023-03-04T03:47:23;97005.97;;;-3.35;100.00
72423;BME280;60413;55.658;37.498;2023-03-04T03:49:51;96997.66;;;-3.30;100.00
72423;BME280;60413;55.658;37.498;2023-03-04T03:52:17;96972.91;;;-3.38;100.00
72423;BME280;60413;55.658;37.498;2023-03-04T03:54:43;96984.53;;;-3.15;100.00
72423;BME280;60413;55.658;37.498;2023-03-04T03:57:10;96967.91;;;-3.26;100.00
72423;BME280;60413;55.658;37.498;2023-03-04T03:59:36;96989.03;;;-2.98;100.00
72423;BME280;60413;55.658;37.498;2023-03-04T04:02:05;96963.72;;;-3.14;100.00
72423;BME280;60413;55.658;37.498;2023-03-04T04:04:33;96955.19;;;-3.14;100.00
72423;BME280;60413;55.658;37.498;2023-03-04T04:07:01;96929.66;;;-3.29;100.00
72423;BME280;60413;55.658;37.498;2023-03-04T04:09:31;96941.53;;;-3.15;100.00
72423;BME280;60413;55.658;37.498;2023-03-04T04:11:57;96970.75;;;-2.89;100.00
72423;BME280;60413;55.658;37.498;2023-03-04T04:14:23;96948.63;;;-3.04;100.00
72423;BME280;60413;55.658;37.498;2023-03-04T04:16:49;96939.88;;;-3.03;100.00
72423;BME280;60413;55.658;37.498;2023-03-04T04:19:18;96911.97;;;-3.12;100.00
72423;BME280;60413;55.658;37.498;2023-03-04T04:21:45;96905.66;;;-3.17;100.00
72423;BME280;60413;55.658;37.498;2023-03-04T04:24:11;96929.38;;;-3.01;100.00
72423;BME280;60413;55.658;37.498;2023-03-04T04:26:38;96916.50;;;-3.08;100.00
72423;BME280;60413;55.658;37.498;2023-03-04T04:29:04;96916.53;;;-3.14;100.00
72423;BME280;60413;55.658;37.498;2023-03-04T04:31:30;96922.03;;;-3.04;100.00
72423;BME280;60413;55.658;37.498;2023-03-04T04:33:56;96956.84;;;-2.82;100.00
72423;BME280;60413;55.658;37.498;2023-03-04T04:36:29;96922.19;;;-2.92;100.00
72423;BME280;60413;55.658;37.498;2023-03-04T04:38:55;96905.38;;;-2.95;100.00
72423;BME280;60413;55.658;37.498;2023-03-04T04:41:25;96931.78;;;-2.68;100.00
72423;BME280;60413;55.658;37.498;2023-03-04T04:43:59;96912.22;;;-2.75;100.00
72423;BME280;60413;55.658;37.498;2023-03-04T04:46:35;96919.78;;;-2.81;100.00
72423;BME280;60413;55.658;37.498;2023-03-04T04:49:05;96930.59;;;-2.65;100.00
72423;BME280;60413;55.658;37.498;2023-03-04T04:51:32;96954.94;;;-2.61;100.00
72423;BME280;60413;55.658;37.498;2023-03-04T04:53:59;96914.59;;;-2.74;100.00
72423;BME280;60413;55.658;37.498;2023-03-04T04:56:27;96912.91;;;-2.62;100.00
72423;BME280;60413;55.658;37.498;2023-03-04T04:58:56;96947.88;;;-2.34;100.00
72423;BME280;60413;55.658;37.498;2023-03-04T05:01:23;96902.38;;;-2.60;100.00
72423;BME280;60413;55.658;37.498;2023-03-04T05:03:50;96911.78;;;-2.40;100.00
72423;BME280;60413;55.658;37.498;2023-03-04T05:06:18;96894.00;;;-2.49;100.00
72423;BME280;60413;55.658;37.498;2023-03-04T05:08:45;96896.78;;;-2.50;100.00
72423;BME280;60413;55.658;37.498;2023-03-04T05:11:12;96889.19;;;-2.45;100.00
72423;BME280;60413;55.658;37.498;2023-03-04T05:13:44;96911.09;;;-2.29;100.00
72423;BME280;60413;55.658;37.498;2023-03-04T05:16:14;96895.03;;;-2.31;100.00
72423;BME280;60413;55.658;37.498;2023-03-04T05:18:41;96923.38;;;-1.99;100.00
72423;BME280;60413;55.658;37.498;2023-03-04T05:21:08;96903.03;;;-2.14;100.00
72423;BME280;60413;55.658;37.498;2023-03-04T05:23:39;96929.84;;;-1.90;100.00
72423;BME280;60413;55.658;37.498;2023-03-04T05:26:12;96896.22;;;-2.02;100.00
72423;BME280;60413;55.658;37.498;2023-03-04T05:28:45;96904.09;;;-1.97;100.00
72423;BME280;60413;55.658;37.498;2023-03-04T05:31:34;96909.84;;;-1.95;100.00
72423;BME280;60413;55.658;37.498;2023-03-04T05:34:04;96889.72;;;-2.11;100.00
72423;BME280;60413;55.658;37.498;2023-03-04T05:36:33;96883.94;;;-2.07;100.00
72423;BME280;60413;55.658;37.498;2023-03-04T05:39:02;96903.25;;;-1.72;100.00
72423;BME280;60413;55.658;37.498;2023-03-04T05:41:37;96924.88;;;-1.48;100.00
72423;BME280;60413;55.658;37.498;2023-03-04T05:44:05;96899.25;;;-1.68;100.00
72423;BME280;60413;55.658;37.498;2023-03-04T05:46:35;96902.75;;;-1.62;100.00
72423;BME280;60413;55.658;37.498;2023-03-04T05:49:03;96886.19;;;-1.73;100.00
72423;BME280;60413;55.658;37.498;2023-03-04T05:51:30;96911.41;;;-1.50;100.00
72423;BME280;60413;55.658;37.498;2023-03-04T05:53:57;96863.88;;;-1.68;100.00
72423;BME280;60413;55.658;37.498;2023-03-04T05:56:27;96886.13;;;-1.48;100.00
72423;BME280;60413;55.658;37.498;2023-03-04T05:59:02;96868.84;;;-1.47;100.00
72423;BME280;60413;55.658;37.498;2023-03-04T06:01:28;96859.31;;;-1.47;100.00
72423;BME280;60413;55.658;37.498;2023-03-04T06:03:56;96867.75;;;-1.40;100.00
72423;BME280;60413;55.658;37.498;2023-03-04T06:06:23;96900.53;;;-1.03;100.00
72423;BME280;60413;55.658;37.498;2023-03-04T06:08:58;96850.84;;;-1.24;100.00
72423;BME280;60413;55.658;37.498;2023-03-04T06:11:28;96871.69;;;-0.88;100.00
72423;BME280;60413;55.658;37.498;2023-03-04T06:13:54;96844.56;;;-0.98;100.00
72423;BME280;60413;55.658;37.498;2023-03-04T06:16:20;96852.97;;;-1.02;100.00
72423;BME280;60413;55.658;37.498;2023-03-04T06:18:51;96850.06;;;-0.94;100.00
72423;BME280;60413;55.658;37.498;2023-03-04T06:21:18;96867.66;;;-0.84;100.00
72423;BME280;60413;55.658;37.498;2023-03-04T06:23:44;96867.75;;;-0.91;100.00
72423;BME280;60413;55.658;37.498;2023-03-04T06:26:12;96828.66;;;-1.13;100.00
72423;BME280;60413;55.658;37.498;2023-03-04T06:28:47;96862.22;;;-0.95;100.00
72423;BME280;60413;55.658;37.498;2023-03-04T06:31:13;96866.63;;;-0.53;100.00
72423;BME280;60413;55.658;37.498;2023-03-04T06:33:41;96840.06;;;-0.48;100.00
72423;BME280;60413;55.658;37.498;2023-03-04T06:36:09;96854.03;;;-0.14;100.00
72423;BME280;60413;55.658;37.498;2023-03-04T06:38:41;96853.03;;;0.11;100.00
72423;BME280;60413;55.658;37.498;2023-03-04T06:41:09;96846.03;;;0.11;100.00
72423;BME280;60413;55.658;37.498;2023-03-04T06:43:40;96857.44;;;0.10;100.00
72423;BME280;60413;55.658;37.498;2023-03-04T06:46:15;96823.41;;;-0.17;100.00
72423;BME280;60413;55.658;37.498;2023-03-04T06:48:43;96823.09;;;-0.09;100.00
72423;BME280;60413;55.658;37.498;2023-03-04T06:51:24;96816.69;;;-0.18;100.00
72423;BME280;60413;55.658;37.498;2023-03-04T06:54:10;96832.19;;;0.06;100.00
72423;BME280;60413;55.658;37.498;2023-03-04T06:56:50;96856.59;;;0.22;100.00
72423;BME280;60413;55.658;37.498;2023-03-04T06:59:23;96844.09;;;0.42;100.00
72423;BME280;60413;55.658;37.498;2023-03-04T07:02:11;96806.31;;;0.06;100.00
72423;BME280;60413;55.658;37.498;2023-03-04T07:04:52;96791.75;;;0.16;100.00
72423;BME280;60413;55.658;37.498;2023-03-04T07:07:18;96784.22;;;0.03;100.00
72423;BME280;60413;55.658;37.498;2023-03-04T07:09:50;96790.00;;;-0.07;100.00
72423;BME280;60413;55.658;37.498;2023-03-04T07:12:16;96788.53;;;-0.03;100.00
72423;BME280;60413;55.658;37.498;2023-03-04T07:14:42;96821.59;;;0.19;100.00
72423;BME280;60413;55.658;37.498;2023-03-04T07:17:09;96790.78;;;-0.18;100.00
72423;BME280;60413;55.658;37.498;2023-03-04T07:19:37;96791.34;;;-0.28;100.00
72423;BME280;60413;55.658;37.498;2023-03-04T07:22:03;96773.22;;;-0.04;100.00
72423;BME280;60413;55.658;37.498;2023-03-04T07:24:31;96777.94;;;0.40;100.00
72423;BME280;60413;55.658;37.498;2023-03-04T07:26:57;96769.13;;;0.81;100.00
72423;BME280;60413;55.658;37.498;2023-03-04T07:29:26;96786.91;;;1.23;100.00
72423;BME280;60413;55.658;37.498;2023-03-04T07:31:52;96792.19;;;1.11;100.00
72423;BME280;60413;55.658;37.498;2023-03-04T07:34:19;96797.44;;;1.00;100.00
72423;BME280;60413;55.658;37.498;2023-03-04T07:36:45;96765.22;;;0.67;100.00
72423;BME280;60413;55.658;37.498;2023-03-04T07:39:12;96796.72;;;0.59;100.00
72423;BME280;60413;55.658;37.498;2023-03-04T07:41:46;96753.94;;;0.15;100.00
72423;BME280;60413;55.658;37.498;2023-03-04T07:44:12;96752.53;;;0.25;100.00
72423;BME280;60413;55.658;37.498;2023-03-04T07:46:39;96755.66;;;0.39;100.00
72423;BME280;60413;55.658;37.498;2023-03-04T07:49:15;96779.84;;;0.73;100.00
72423;BME280;60413;55.658;37.498;2023-03-04T07:51:47;96758.41;;;0.61;100.00
72423;BME280;60413;55.658;37.498;2023-03-04T07:54:19;96735.22;;;0.25;100.00
72423;BME280;60413;55.658;37.498;2023-03-04T07:56:45;96761.72;;;0.44;100.00
72423;BME280;60413;55.658;37.498;2023-03-04T07:59:19;96744.63;;;0.31;100.00
72423;BME280;60413;55.658;37.498;2023-03-04T08:01:45;96751.94;;;0.34;100.00
72423;BME280;60413;55.658;37.498;2023-03-04T08:04:11;96776.78;;;0.59;100.00
72423;BME280;60413;55.658;37.498;2023-03-04T08:06:42;96758.75;;;0.52;100.00
72423;BME280;60413;55.658;37.498;2023-03-04T08:09:11;96729.03;;;0.43;100.00
72423;BME280;60413;55.658;37.498;2023-03-04T08:11:39;96730.41;;;0.46;100.00
72423;BME280;60413;55.658;37.498;2023-03-04T08:14:06;96749.50;;;0.57;100.00
72423;BME280;60413;55.658;37.498;2023-03-04T08:16:32;96716.69;;;0.33;100.00
72423;BME280;60413;55.658;37.498;2023-03-04T08:19:00;96731.94;;;0.47;100.00
72423;BME280;60413;55.658;37.498;2023-03-04T08:21:27;96717.66;;;0.44;100.00
72423;BME280;60413;55.658;37.498;2023-03-04T08:23:54;96757.53;;;1.01;100.00
72423;BME280;60413;55.658;37.498;2023-03-04T08:26:25;96727.47;;;0.88;100.00
72423;BME280;60413;55.658;37.498;2023-03-04T08:28:56;96714.28;;;0.72;100.00
72423;BME280;60413;55.658;37.498;2023-03-04T08:31:22;96731.72;;;0.77;100.00
72423;BME280;60413;55.658;37.498;2023-03-04T08:33:49;96740.19;;;0.72;100.00
72423;BME280;60413;55.658;37.498;2023-03-04T08:36:16;96709.38;;;0.59;100.00
72423;BME280;60413;55.658;37.498;2023-03-04T08:38:48;96739.50;;;0.77;100.00
72423;BME280;60413;55.658;37.498;2023-03-04T08:41:15;96716.47;;;0.64;100.00
72423;BME280;60413;55.658;37.498;2023-03-04T08:43:42;96734.41;;;0.82;100.00
72423;BME280;60413;55.658;37.498;2023-03-04T08:46:09;96710.91;;;0.72;100.00
72423;BME280;60413;55.658;37.498;2023-03-04T08:48:38;96705.72;;;0.72;100.00
72423;BME280;60413;55.658;37.498;2023-03-04T08:51:10;96699.31;;;0.63;100.00
72423;BME280;60413;55.658;37.498;2023-03-04T08:53:41;96682.94;;;0.74;100.00
72423;BME280;60413;55.658;37.498;2023-03-04T08:56:09;96712.81;;;1.10;100.00
72423;BME280;60413;55.658;37.498;2023-03-04T08:58:39;96671.97;;;1.23;100.00
72423;BME280;60413;55.658;37.498;2023-03-04T09:01:10;96681.50;;;2.00;100.00
72423;BME280;60413;55.658;37.498;2023-03-04T09:03:37;96684.88;;;2.23;100.00
72423;BME280;60413;55.658;37.498;2023-03-04T09:06:05;96663.59;;;1.99;100.00
72423;BME280;60413;55.658;37.498;2023-03-04T09:08:35;96674.03;;;2.04;100.00
72423;BME280;60413;55.658;37.498;2023-03-04T09:11:07;96682.84;;;2.03;100.00
72423;BME280;60413;55.658;37.498;2023-03-04T09:13:36;96654.59;;;1.62;100.00
72423;BME280;60413;55.658;37.498;2023-03-04T09:16:11;96661.31;;;1.41;100.00
72423;BME280;60413;55.658;37.498;2023-03-04T09:18:39;96645.59;;;1.09;100.00
72423;BME280;60413;55.658;37.498;2023-03-04T09:21:11;96653.59;;;1.07;100.00
72423;BME280;60413;55.658;37.498;2023-03-04T09:23:38;96673.56;;;1.24;100.00
72423;BME280;60413;55.658;37.498;2023-03-04T09:26:24;96676.56;;;1.16;100.00
72423;BME280;60413;55.658;37.498;2023-03-04T09:28:56;96628.47;;;0.91;100.00
72423;BME280;60413;55.658;37.498;2023-03-04T09:31:26;96648.69;;;0.72;100.00
72423;BME280;60413;55.658;37.498;2023-03-04T09:34:09;96634.22;;;0.76;100.00
72423;BME280;60413;55.658;37.498;2023-03-04T09:36:41;96623.91;;;0.98;100.00
72423;BME280;60413;55.658;37.498;2023-03-04T09:39:16;96641.22;;;1.54;100.00
72423;BME280;60413;55.658;37.498;2023-03-04T09:41:57;96588.25;;;1.99;100.00
72423;BME280;60413;55.658;37.498;2023-03-04T09:44:32;96584.06;;;2.25;100.00
72423;BME280;60413;55.658;37.498;2023-03-04T09:47:16;96579.88;;;2.19;100.00
72423;BME280;60413;55.658;37.498;2023-03-04T09:50:05;96599.22;;;2.33;100.00
72423;BME280;60413;55.658;37.498;2023-03-04T09:55:57;96577.31;;;1.97;100.00
72423;BME280;60413;55.658;37.498;2023-03-04T10:01:28;96570.69;;;1.35;100.00
72423;BME280;60413;55.658;37.498;2023-03-04T10:04:13;96576.41;;;1.59;100.00
72423;BME280;60413;55.658;37.498;2023-03-04T10:06:45;96572.41;;;1.73;100.00
72423;BME280;60413;55.658;37.498;2023-03-04T10:09:25;96536.22;;;1.17;100.00
72423;BME280;60413;55.658;37.498;2023-03-04T10:11:59;96565.00;;;1.38;100.00
72423;BME280;60413;55.658;37.498;2023-03-04T10:14:51;96565.25;;;1.36;100.00
72423;BME280;60413;55.658;37.498;2023-03-04T10:20:22;96518.88;;;1.45;100.00
72423;BME280;60413;55.658;37.498;2023-03-04T10:25:54;96529.88;;;1.52;100.00
72423;BME280;60413;55.658;37.498;2023-03-04T10:28:27;96525.41;;;1.47;100.00
72423;BME280;60413;55.658;37.498;2023-03-04T10:33:55;96504.16;;;1.28;100.00
72423;BME280;60413;55.658;37.498;2023-03-04T10:36:58;96536.47;;;1.65;100.00
72423;BME280;60413;55.658;37.498;2023-03-04T10:39:51;96508.09;;;1.31;100.00
72423;BME280;60413;55.658;37.498;2023-03-04T10:42:28;96500.38;;;1.14;100.00
72423;BME280;60413;55.658;37.498;2023-03-04T10:45:03;96505.13;;;1.00;100.00
72423;BME280;60413;55.658;37.498;2023-03-04T10:47:31;96485.34;;;0.72;100.00
72423;BME280;60413;55.658;37.498;2023-03-04T10:50:05;96490.47;;;0.50;100.00
72423;BME280;60413;55.658;37.498;2023-03-04T10:52:48;96460.53;;;0.37;100.00
72423;BME280;60413;55.658;37.498;2023-03-04T10:55:45;96494.22;;;0.76;100.00
72423;BME280;60413;55.658;37.498;2023-03-04T11:01:14;96456.13;;;0.99;100.00
72423;BME280;60413;55.658;37.498;2023-03-04T11:03:47;96481.97;;;1.38;100.00
72423;BME280;60413;55.658;37.498;2023-03-04T11:09:55;96442.88;;;1.22;100.00
72423;BME280;60413;55.658;37.498;2023-03-04T11:12:39;96442.75;;;1.34;100.00
72423;BME280;60413;55.658;37.498;2023-03-04T11:15:21;96421.69;;;1.31;100.00
72423;BME280;60413;55.658;37.498;2023-03-04T11:18:03;96430.41;;;1.19;100.00
72423;BME280;60413;55.658;37.498;2023-03-04T11:27:46;96415.66;;;0.76;100.00
72423;BME280;60413;55.658;37.498;2023-03-04T11:55:47;96414.63;;;0.15;100.00
72423;BME280;60413;55.658;37.498;2023-03-04T12:57:31;96313.75;;;0.04;100.00
72423;BME280;60413;55.658;37.498;2023-03-04T13:06:57;96297.00;;;-0.28;100.00
72423;BME280;60413;55.658;37.498;2023-03-04T14:06:39;96215.84;;;-0.22;100.00
72423;BME280;60413;55.658;37.498;2023-03-04T14:10:22;96149.22;;;-0.70;100.00
72423;BME280;60413;55.658;37.498;2023-03-04T14:13:24;96168.09;;;-0.53;100.00
72423;BME280;60413;55.658;37.498;2023-03-04T14:19:14;96148.81;;;-0.62;100.00
72423;BME280;60413;55.658;37.498;2023-03-04T14:21:50;96160.50;;;-0.60;100.00
72423;BME280;60413;55.658;37.498;2023-03-04T14:24:29;96114.34;;;-0.90;100.00
72423;BME280;60413;55.658;37.498;2023-03-04T14:27:13;96125.81;;;-0.81;100.00
72423;BME280;60413;55.658;37.498;2023-03-04T14:35:51;96092.56;;;-0.94;100.00
72423;BME280;60413;55.658;37.498;2023-03-04T14:39:32;96095.94;;;-0.94;100.00
72423;BME280;60413;55.658;37.498;2023-03-04T14:42:47;96085.03;;;-0.96;100.00
72423;BME280;60413;55.658;37.498;2023-03-04T14:46:09;96081.06;;;-1.03;100.00
72423;BME280;60413;55.658;37.498;2023-03-04T14:55:15;96144.50;;;-0.34;100.00
72423;BME280;60413;55.658;37.498;2023-03-04T14:58:21;96118.56;;;-0.62;100.00
72423;BME280;60413;55.658;37.498;2023-03-04T15:01:43;96122.28;;;-0.52;100.00
72423;BME280;60413;55.658;37.498;2023-03-04T15:04:22;96062.94;;;-0.86;100.00
72423;BME280;60413;55.658;37.498;2023-03-04T15:06:59;96103.41;;;-0.53;100.00
72423;BME280;60413;55.658;37.498;2023-03-04T15:09:30;96095.41;;;-0.51;100.00
72423;BME280;60413;55.658;37.498;2023-03-04T15:12:39;96050.53;;;-0.84;100.00
72423;BME280;60413;55.658;37.498;2023-03-04T15:21:00;96088.25;;;-0.66;100.00
72423;BME280;60413;55.658;37.498;2023-03-04T15:23:52;96125.81;;;-0.42;100.00
72423;BME280;60413;55.658;37.498;2023-03-04T15:26:32;96092.78;;;-0.57;100.00
72423;BME280;60413;55.658;37.498;2023-03-04T15:29:22;96079.44;;;-0.65;100.00
72423;BME280;60413;55.658;37.498;2023-03-04T15:32:08;96095.41;;;-0.51;100.00
72423;BME280;60413;55.658;37.498;2023-03-04T15:34:52;96042.44;;;-0.93;100.00
72423;BME280;60413;55.658;37.498;2023-03-04T15:37:34;96069.84;;;-0.70;100.00
72423;BME280;60413;55.658;37.498;2023-03-04T15:40:42;96107.00;;;-0.32;100.00
72423;BME280;60413;55.658;37.498;2023-03-04T15:44:11;96114.31;;;-0.24;100.00
72423;BME280;60413;55.658;37.498;2023-03-04T15:46:58;96055.94;;;-0.64;100.00
72423;BME280;60413;55.658;37.498;2023-03-04T15:49:34;96044.53;;;-0.68;100.00
72423;BME280;60413;55.658;37.498;2023-03-04T15:52:31;96033.41;;;-0.68;100.00
72423;BME280;60413;55.658;37.498;2023-03-04T15:58:28;96092.50;;;-0.33;100.00
72423;BME280;60413;55.658;37.498;2023-03-04T16:02:13;96062.59;;;-0.46;100.00
72423;BME280;60413;55.658;37.498;2023-03-04T16:05:27;96040.22;;;-0.57;100.00
72423;BME280;60413;55.658;37.498;2023-03-04T16:11:55;96043.25;;;-0.43;100.00
72423;BME280;60413;55.658;37.498;2023-03-04T16:14:57;96056.13;;;-0.48;100.00
72423;BME280;60413;55.658;37.498;2023-03-04T16:17:34;96074.44;;;-0.28;100.00
72423;BME280;60413;55.658;37.498;2023-03-04T16:21:04;96019.53;;;-0.57;100.00
72423;BME280;60413;55.658;37.498;2023-03-04T16:23:59;96086.47;;;-0.16;100.00
72423;BME280;60413;55.658;37.498;2023-03-04T16:31:26;96060.41;;;-0.32;100.00
72423;BME280;60413;55.658;37.498;2023-03-04T16:34:38;96012.97;;;-0.70;100.00
72423;BME280;60413;55.658;37.498;2023-03-04T16:37:35;96001.94;;;-0.60;100.00
72423;BME280;60413;55.658;37.498;2023-03-04T16:40:19;96025.28;;;-0.55;100.00
72423;BME280;60413;55.658;37.498;2023-03-04T16:43:27;96067.22;;;-0.26;100.00
72423;BME280;60413;55.658;37.498;2023-03-04T16:46:17;96060.53;;;-0.22;100.00
72423;BME280;60413;55.658;37.498;2023-03-04T16:48:55;96004.78;;;-0.62;100.00
72423;BME280;60413;55.658;37.498;2023-03-04T16:52:01;96060.34;;;-0.15;100.00
72423;BME280;60413;55.658;37.498;2023-03-04T16:55:07;96055.41;;;-0.16;100.00
72423;BME280;60413;55.658;37.498;2023-03-04T17:01:36;95986.97;;;-0.58;100.00